Flaherty, Kentucky
Current Conditions -  °F | °C
As of 2:28 PM on Thursday 27 Nov 2014 (Local Time) from KFTK Reporting Station
Broken Clouds Broken Clouds  
Wind Chill: 24°   Ceiling: 1900
Heat Index: 32°   Visibility: 10mi
Dew Point: 25°   Wind: 10mph
Humidity: 75%   Direction: 260°W
Pressure: 30.35"   Gusts: NA
Location:  37.8337°N, 86.0614°W
Report Text: KFTK 271928Z AUTO 26009KT 10SM BKN019 00/M04 A3035 RMK AO2
Loading
Personal Weather Stations






























Interactive Weather Map New forecast layout! Learn more

10-Day Weather Forecast

Advertisements
Track Severe Weather on mobile